Time;durP1;ratioP1;P1;durP2;ratioP2;P2;SDS_P1;SDS_P2;PMS_P1;PMS_P2;Temp;Humidity;BMP_temperature;BMP_pressure;BME280_temperature;BME280_humidity;BME280_pressure;Samples;Min_cycle;Max_cycle;Signal;HPM_P1;HPM_P2
2021/12/24 00:00:20;;;;;;;;;;;;;;;2.02;59.23;99433.81;4370209;32;34303;-83
2021/12/24 00:03:01;;;;;;;;;;;;;;;2.15;59.09;99432.09;4362191;32;36053;-81
2021/12/24 00:06:16;;;;;;;;;;;;;;;;;;;;;
2021/12/24 00:50:09;;;;;;;;;;;;;;;2.49;58.33;99342.25;4351027;32;33960;-82
2021/12/24 00:59:12;;;;;;;;;;;;;;;2.44;57.90;99302.34;4340703;33;33316;-82
2021/12/24 01:24:16;;;;;;;;;;;;;;;;;;;;;
2021/12/24 01:49:51;;;;;;;;;;;;;;;1.50;62.77;99247.59;4268981;33;33025;-82
2021/12/24 01:53:29;;;;;;;;;;;;;;;1.76;62.70;99228.34;4283194;33;33215;-82
2021/12/24 02:02:23;;;;;;;;;;;;;;;1.94;61.55;99221.84;4280487;33;33370;-82
2021/12/24 02:30:26;;;;;;;;;;;;;;;;;;;;;
2021/12/24 02:40:29;;;;;;;;;;;;;;;1.88;62.26;99132.28;4360676;32;34169;-81
2021/12/24 02:55:40;;;;;;;;;;;;;;;;;;;;;
2021/12/24 03:08:33;;;;;;;;;;;;;;;2.23;61.67;99115.72;4357358;32;33743;-81
2021/12/24 03:12:11;;;;;;;;;;;;;;;;;;;;;
2021/12/24 03:28:29;;;;;;;;;;;;;;;2.68;61.02;99147.37;4314800;33;35087;-82
2021/12/24 03:31:15;;;;;;;;;;;;;;;2.58;62.22;99134.19;4323964;33;33713;-81
2021/12/24 03:40:41;;;;;;;;;;;;;;;2.97;61.36;99111.97;4320339;33;34584;-83
2021/12/24 03:47:06;;;;;;;;;;;;;;;2.93;61.53;99104.41;4324559;33;34886;-82
2021/12/24 04:02:54;;;;;;;;;;;;;;;3.01;60.99;99076.63;4361953;32;36183;-82
2021/12/24 04:06:32;;;;;;;;;;;;;;;3.04;61.01;99063.25;4375781;32;35520;-83
2021/12/24 04:09:52;;;;;;;;;;;;;;;3.09;60.74;99047.13;4366642;32;33681;-82
2021/12/24 04:28:35;;;;;;;;;;;;;;;3.25;60.22;99011.69;4381277;32;32619;-82
2021/12/24 05:12:05;;;;;;;;;;;;;;;3.14;60.99;98995.91;4390992;32;33485;-81
2021/12/24 05:14:49;;;;;;;;;;;;;;;;;;;;;
2021/12/24 05:24:13;;;;;;;;;;;;;;;;;;;;;
2021/12/24 05:27:47;;;;;;;;;;;;;;;;;;;;;
2021/12/24 05:37:30;;;;;;;;;;;;;;;3.10;61.27;98986.59;4330624;33;33180;-83
2021/12/24 05:44:04;;;;;;;;;;;;;;;3.08;61.10;98983.25;4326724;33;35639;-82
2021/12/24 05:50:09;;;;;;;;;;;;;;;;;;;;;
2021/12/24 05:59:45;;;;;;;;;;;;;;;2.92;61.42;99000.25;4296288;33;34654;-92
2021/12/24 06:08:34;;;;;;;;;;;;;;;3.22;60.93;99006.66;4326589;27;35176;-86
2021/12/24 06:19:03;;;;;;;;;;;;;;;;;;;;;
2021/12/24 06:29:49;;;;;;;;;;;;;;;2.79;62.87;98989.03;4282017;33;34171;-87
2021/12/24 06:37:15;;;;;;;;;;;;;;;;;;;;;
2021/12/24 07:05:28;;;;;;;;;;;;;;;3.13;62.83;98980.25;4219392;33;36835;-84
2021/12/24 07:24:33;;;;;;;;;;;;;;;3.15;64.18;98978.34;4204940;33;31984;-84
2021/12/24 07:27:40;;;;;;;;;;;;;;;;;;;;;
2021/12/24 07:48:09;;;;;;;;;;;;;;;3.40;63.92;99007.88;4201367;34;33691;-85
2021/12/24 07:55:17;;;;;;;;;;;;;;;3.92;62.05;98954.63;4258298;33;33669;-84
2021/12/24 08:13:34;;;;;;;;;;;;;;;;;;;;;
2021/12/24 08:16:39;;;;;;;;;;;;;;;4.78;59.81;98938.56;4252828;33;36126;-86
2021/12/24 08:19:59;;;;;;;;;;;;;;;4.60;60.42;98939.28;4238910;33;34546;-85
2021/12/24 08:33:23;;;;;;;;;;;;;;;5.25;59.32;98916.91;4248688;33;31967;-84
2021/12/24 08:37:01;;;;;;;;;;;;;;;;;;;;;
2021/12/24 08:40:24;;;;;;;;;;;;;;;5.02;60.31;98922.50;4261030;33;35110;-85
2021/12/24 08:47:26;;;;;;;;;;;;;;;5.13;60.57;98894.25;4345716;27;20539;-86
2021/12/24 08:49:54;;;;;;;;;;;;;;;5.34;60.68;98910.84;4368966;32;33465;-85
2021/12/24 08:52:21;;;;;;;;;;;;;;;5.30;61.03;98919.16;4366871;32;35981;-84
2021/12/24 08:54:48;;;;;;;;;;;;;;;5.32;60.52;98904.88;4381903;32;34410;-85
2021/12/24 08:57:16;;;;;;;;;;;;;;;5.32;61.13;98922.50;4381910;32;33398;-84
2021/12/24 08:59:44;;;;;;;;;;;;;;;5.59;60.25;98916.47;4372092;32;32669;-85
2021/12/24 09:02:16;;;;;;;;;;;;;;;5.25;61.82;98913.44;4383411;32;34921;-87
2021/12/24 09:04:44;;;;;;;;;;;;;;;5.82;59.92;98909.22;4392667;32;34748;-87
2021/12/24 09:07:11;;;;;;;;;;;;;;;5.52;60.82;98907.41;4369515;32;32663;-86
2021/12/24 09:09:39;;;;;;;;;;;;;;;5.49;61.06;98909.53;4394998;32;34546;-84
2021/12/24 09:12:07;;;;;;;;;;;;;;;5.62;61.03;98912.75;4376030;32;35072;-86
2021/12/24 09:14:35;;;;;;;;;;;;;;;5.42;61.80;98911.03;4393666;32;36321;-85
2021/12/24 09:17:03;;;;;;;;;;;;;;;5.14;62.59;98909.09;4363780;32;33909;-81
2021/12/24 09:19:32;;;;;;;;;;;;;;;5.98;60.64;98909.53;4368603;32;33864;-83
2021/12/24 09:21:59;;;;;;;;;;;;;;;5.98;60.83;98910.34;4367532;32;36312;-85
2021/12/24 09:24:30;;;;;;;;;;;;;;;6.35;59.92;98900.78;4376823;32;34857;-84
2021/12/24 09:26:58;;;;;;;;;;;;;;;6.35;60.55;98889.38;4390396;32;32292;-85
2021/12/24 09:29:25;;;;;;;;;;;;;;;6.60;59.81;98889.63;4374033;32;34650;-87
2021/12/24 09:31:53;;;;;;;;;;;;;;;6.17;61.44;98889.22;4370701;32;34939;-82
2021/12/24 09:34:21;;;;;;;;;;;;;;;6.39;61.03;98872.28;4364792;32;35326;-84
2021/12/24 09:36:48;;;;;;;;;;;;;;;6.98;59.77;98871.03;4387591;32;34273;-83
2021/12/24 09:39:16;;;;;;;;;;;;;;;6.80;60.27;98867.47;4394404;32;34057;-87
2021/12/24 09:41:44;;;;;;;;;;;;;;;6.49;61.71;98866.00;4386507;32;34849;-84
2021/12/24 09:44:11;;;;;;;;;;;;;;;6.89;60.93;98865.78;4382718;32;34897;-83
2021/12/24 09:46:42;;;;;;;;;;;;;;;6.70;60.86;98860.56;4381125;32;33902;-83
2021/12/24 09:49:10;;;;;;;;;;;;;;;6.89;60.56;98848.09;4366609;32;34776;-84
2021/12/24 09:51:38;;;;;;;;;;;;;;;6.72;60.88;98846.19;4380054;32;35835;-84
2021/12/24 09:54:10;;;;;;;;;;;;;;;6.62;61.57;98831.38;4357232;32;34133;-85
2021/12/24 09:56:56;;;;;;;;;;;;;;;6.94;60.96;98847.66;4383063;32;33921;-84
2021/12/24 09:59:24;;;;;;;;;;;;;;;7.39;59.43;98830.06;4373476;32;33818;-87
2021/12/24 10:01:56;;;;;;;;;;;;;;;7.20;59.84;98822.22;4381619;32;34448;-84
2021/12/24 10:04:26;;;;;;;;;;;;;;;7.20;60.09;98822.22;4381126;32;34165;-84
2021/12/24 10:06:59;;;;;;;;;;;;;;;7.50;59.11;98816.62;4382630;32;32786;-83
2021/12/24 10:09:29;;;;;;;;;;;;;;;7.30;59.18;98817.72;4368986;32;35185;-84
2021/12/24 10:11:57;;;;;;;;;;;;;;;7.52;59.36;98809.38;4374393;32;34486;-85
2021/12/24 10:14:34;;;;;;;;;;;;;;;7.70;58.72;98802.28;4375592;32;33493;-86
2021/12/24 10:17:02;;;;;;;;;;;;;;;7.92;58.08;98794.72;4382257;32;33524;-85
2021/12/24 10:19:42;;;;;;;;;;;;;;;7.63;58.81;98796.75;4379792;32;33962;-86
2021/12/24 10:22:09;;;;;;;;;;;;;;;7.59;59.60;98794.56;4380451;32;35601;-83
2021/12/24 10:24:37;;;;;;;;;;;;;;;8.09;58.48;98796.53;4367933;32;34097;-85
2021/12/24 10:27:04;;;;;;;;;;;;;;;8.05;59.21;98794.34;4390157;32;32623;-85
2021/12/24 10:29:34;;;;;;;;;;;;;;;8.38;57.94;98801.62;4370240;32;33736;-86
2021/12/24 10:32:13;;;;;;;;;;;;;;;8.55;57.29;98794.47;4369124;32;33575;-83
2021/12/24 10:34:41;;;;;;;;;;;;;;;8.42;57.44;98793.19;4381535;32;35127;-85
2021/12/24 10:37:10;;;;;;;;;;;;;;;8.29;58.35;98790.09;4395516;32;32648;-83
2021/12/24 10:39:40;;;;;;;;;;;;;;;8.62;57.53;98792.81;4394227;32;34927;-84
2021/12/24 10:42:10;;;;;;;;;;;;;;;8.70;57.35;98792.88;4392149;32;35462;-86
2021/12/24 10:44:37;;;;;;;;;;;;;;;8.51;58.02;98790.44;4378614;32;34330;-84
2021/12/24 10:47:08;;;;;;;;;;;;;;;8.68;57.53;98780.75;4357334;32;32071;-85
2021/12/24 10:54:48;;;;;;;;;;;;;;;8.87;57.44;98767.28;4393976;32;34323;-87
2021/12/24 10:57:16;;;;;;;;;;;;;;;9.09;57.23;98774.69;4387553;32;32989;-86
2021/12/24 10:59:44;;;;;;;;;;;;;;;9.03;56.62;98770.84;4379486;32;35061;-87
2021/12/24 11:02:12;;;;;;;;;;;;;;;8.97;56.55;98768.00;4356845;32;34579;-85
2021/12/24 11:04:39;;;;;;;;;;;;;;;9.35;55.40;98767.50;4389127;32;34888;-84
2021/12/24 11:07:25;;;;;;;;;;;;;;;9.32;55.31;98768.63;4378718;32;32975;-85
2021/12/24 11:10:14;;;;;;;;;;;;;;;9.52;55.03;98772.66;4393499;32;33258;-85
2021/12/24 11:12:43;;;;;;;;;;;;;;;9.46;55.11;98778.62;4391310;32;35793;-85
2021/12/24 11:15:27;;;;;;;;;;;;;;;9.74;54.19;98766.72;4356697;32;33543;-86
2021/12/24 11:17:59;;;;;;;;;;;;;;;9.59;54.38;98773.69;4378037;32;34386;-87
2021/12/24 11:20:28;;;;;;;;;;;;;;;9.08;56.35;98763.22;4371028;32;32981;-87
2021/12/24 11:23:06;;;;;;;;;;;;;;;9.24;55.86;98767.75;4377098;32;34648;-85
2021/12/24 11:25:38;;;;;;;;;;;;;;;9.02;56.29;98769.19;4389344;32;36435;-86
2021/12/24 11:28:07;;;;;;;;;;;;;;;9.29;55.45;98760.16;4385083;32;33425;-84
2021/12/24 11:30:35;;;;;;;;;;;;;;;9.17;55.47;98774.72;4371881;32;34596;-87
2021/12/24 11:33:03;;;;;;;;;;;;;;;9.65;54.68;98782.81;4392080;32;34614;-86
2021/12/24 11:35:31;;;;;;;;;;;;;;;9.72;54.24;98765.25;4375828;32;35504;-86
2021/12/24 11:38:00;;;;;;;;;;;;;;;9.83;54.81;98767.59;4382745;32;32941;-87
2021/12/24 11:40:28;;;;;;;;;;;;;;;9.85;54.32;98754.97;4389903;32;33677;-87
2021/12/24 11:42:58;;;;;;;;;;;;;;;9.68;54.99;98759.44;4380112;32;35202;-86
2021/12/24 11:45:27;;;;;;;;;;;;;;;9.93;54.61;98745.16;4379122;32;34619;-84
2021/12/24 11:47:55;;;;;;;;;;;;;;;9.95;54.48;98748.50;4371693;32;33055;-86
2021/12/24 11:50:23;;;;;;;;;;;;;;;10.19;53.95;98751.19;4396602;32;33148;-86
2021/12/24 11:52:51;;;;;;;;;;;;;;;10.17;54.22;98750.53;4392069;32;35407;-86
2021/12/24 11:55:19;;;;;;;;;;;;;;;10.24;54.31;98750.69;4384688;32;34335;-87
2021/12/24 11:57:57;;;;;;;;;;;;;;;10.63;54.07;98746.28;4372554;32;34049;-86
2021/12/24 12:00:35;;;;;;;;;;;;;;;10.84;53.69;98744.75;4373411;32;33145;-85
2021/12/24 12:03:03;;;;;;;;;;;;;;;10.93;54.24;98735.72;4376763;32;34691;-87
2021/12/24 12:05:38;;;;;;;;;;;;;;;11.01;53.96;98733.03;4378142;32;34777;-88
2021/12/24 12:08:29;;;;;;;;;;;;;;;11.32;53.94;98725.91;4379852;32;32121;-86
2021/12/24 12:10:59;;;;;;;;;;;;;;;11.43;53.50;98731.66;4386058;32;34746;-86
2021/12/24 12:13:46;;;;;;;;;;;;;;;11.61;53.28;98726.94;4390168;32;35878;-87
2021/12/24 12:16:15;;;;;;;;;;;;;;;11.59;51.21;98730.78;4373502;32;35534;-88
2021/12/24 12:18:47;;;;;;;;;;;;;;;11.34;52.55;98743.37;4381183;32;31570;-87
2021/12/24 12:21:20;;;;;;;;;;;;;;;11.38;52.09;98736.72;4392131;32;33278;-86
2021/12/24 12:26:43;;;;;;;;;;;;;;;11.11;52.71;98731.00;4384820;32;34449;-87
2021/12/24 12:29:29;;;;;;;;;;;;;;;10.91;53.38;98734.25;4391718;32;33705;-87
2021/12/24 12:32:07;;;;;;;;;;;;;;;10.84;53.53;98739.41;4390232;32;34076;-84
2021/12/24 12:34:43;;;;;;;;;;;;;;;10.89;54.08;98739.75;4361485;32;34182;-85
2021/12/24 12:37:11;;;;;;;;;;;;;;;11.05;53.99;98738.84;4394981;32;33812;-85
2021/12/24 12:39:39;;;;;;;;;;;;;;;10.86;55.21;98733.94;4390960;32;32474;-88
2021/12/24 12:42:07;;;;;;;;;;;;;;;10.99;54.89;98737.72;4384103;32;34133;-85
2021/12/24 12:44:35;;;;;;;;;;;;;;;10.97;55.00;98744.22;4383809;32;34540;-90
2021/12/24 12:47:09;;;;;;;;;;;;;;;10.74;55.86;98744.13;4392736;32;34353;-87
2021/12/24 12:49:37;;;;;;;;;;;;;;;10.67;56.37;98737.81;4367733;32;31585;-86
2021/12/24 12:52:11;;;;;;;;;;;;;;;10.66;57.45;98740.66;4380912;32;35331;-87
2021/12/24 12:54:38;;;;;;;;;;;;;;;10.79;57.84;98741.78;4376760;32;34658;-87
2021/12/24 12:57:12;;;;;;;;;;;;;;;10.81;58.75;98744.25;4365415;32;32906;-85
2021/12/24 12:59:40;;;;;;;;;;;;;;;10.87;58.39;98733.75;4379334;32;32946;-89
2021/12/24 13:02:08;;;;;;;;;;;;;;;10.93;58.15;98742.91;4383730;32;32423;-87
2021/12/24 13:04:36;;;;;;;;;;;;;;;10.92;58.25;98731.41;4388830;32;34697;-87
2021/12/24 13:07:03;;;;;;;;;;;;;;;10.82;58.94;98732.59;4380840;32;34132;-86
2021/12/24 13:09:34;;;;;;;;;;;;;;;10.84;59.04;98730.63;4397454;32;33192;-87
2021/12/24 13:12:03;;;;;;;;;;;;;;;10.96;58.96;98726.59;4383720;32;34684;-85
2021/12/24 13:14:31;;;;;;;;;;;;;;;11.00;58.80;98731.38;4381834;32;35088;-86
2021/12/24 13:22:32;;;;;;;;;;;;;;;11.14;59.25;98749.28;4390626;32;33751;-86
2021/12/24 13:25:05;;;;;;;;;;;;;;;10.97;59.72;98760.19;4369680;32;34721;-86
2021/12/24 13:27:37;;;;;;;;;;;;;;;10.82;59.71;98756.56;4393766;32;34126;-86
2021/12/24 13:30:05;;;;;;;;;;;;;;;10.68;60.49;98757.28;4369125;32;32509;-87
2021/12/24 13:32:39;;;;;;;;;;;;;;;10.57;60.64;98749.66;4389428;32;33572;-87
2021/12/24 13:35:07;;;;;;;;;;;;;;;10.55;60.82;98749.81;4380855;32;33647;-86
2021/12/24 13:37:35;;;;;;;;;;;;;;;10.73;60.23;98762.88;4377668;32;34770;-87
2021/12/24 13:40:02;;;;;;;;;;;;;;;10.52;60.92;98774.09;4377052;32;32543;-86
2021/12/24 13:42:39;;;;;;;;;;;;;;;10.42;61.62;98759.31;4378530;32;32472;-87
2021/12/24 13:45:07;;;;;;;;;;;;;;;10.59;60.76;98772.41;4379769;32;36337;-86
2021/12/24 13:47:53;;;;;;;;;;;;;;;10.34;61.70;98791.22;4368332;32;33794;-86
2021/12/24 13:55:41;;;;;;;;;;;;;;;10.24;61.72;98778.09;4371756;32;34976;-86
2021/12/24 13:58:10;;;;;;;;;;;;;;;10.50;60.95;98783.22;4379271;32;32735;-86
2021/12/24 14:00:39;;;;;;;;;;;;;;;10.27;61.30;98788.41;4370466;32;31398;-86
2021/12/24 14:03:09;;;;;;;;;;;;;;;10.41;60.67;98781.56;4378138;32;33679;-87
2021/12/24 14:05:43;;;;;;;;;;;;;;;10.49;60.27;98786.88;4375983;32;34081;-87
2021/12/24 14:08:12;;;;;;;;;;;;;;;10.09;61.34;98801.00;4382233;32;34837;-85
2021/12/24 14:10:40;;;;;;;;;;;;;;;9.95;61.96;98792.81;4379164;32;32877;-85
2021/12/24 14:13:13;;;;;;;;;;;;;;;9.95;62.10;98788.38;4369371;32;32798;-86
2021/12/24 14:24:10;;;;;;;;;;;;;;;9.76;62.74;98790.47;4381976;32;34441;-86
2021/12/24 14:26:42;;;;;;;;;;;;;;;9.77;62.47;98792.97;4381467;32;34025;-87
2021/12/24 14:29:10;;;;;;;;;;;;;;;9.84;61.99;98791.31;4367914;32;35503;-86
2021/12/24 14:31:48;;;;;;;;;;;;;;;9.40;63.50;98792.56;4392261;32;32596;-87
2021/12/24 14:34:34;;;;;;;;;;;;;;;9.36;63.62;98796.50;4374899;32;33825;-86
2021/12/24 14:37:03;;;;;;;;;;;;;;;9.57;62.87;98788.97;4390924;32;36061;-85
2021/12/24 14:39:34;;;;;;;;;;;;;;;9.63;62.73;98785.62;4393911;32;34756;-87
2021/12/24 14:42:28;;;;;;;;;;;;;;;9.82;62.10;98787.19;4383195;32;32366;-87
2021/12/24 14:45:12;;;;;;;;;;;;;;;9.79;62.17;98787.50;4386753;32;34167;-87
2021/12/24 14:47:40;;;;;;;;;;;;;;;9.76;62.24;98783.34;4403477;32;34248;-86
2021/12/24 14:50:09;;;;;;;;;;;;;;;9.67;62.61;98792.31;4370984;32;32695;-87
2021/12/24 14:52:37;;;;;;;;;;;;;;;9.57;63.01;98785.47;4400989;32;33464;-87
2021/12/24 14:55:11;;;;;;;;;;;;;;;9.75;62.35;98780.84;4371988;32;34094;-87
2021/12/24 14:57:48;;;;;;;;;;;;;;;9.70;62.28;98777.84;4379780;32;33541;-86
2021/12/24 15:00:17;;;;;;;;;;;;;;;9.52;62.86;98782.44;4393659;32;35271;-87
2021/12/24 15:02:46;;;;;;;;;;;;;;;9.64;62.62;98773.19;4393565;32;32996;-87
2021/12/24 15:05:34;;;;;;;;;;;;;;;9.63;62.40;98777.66;4374172;32;33879;-85
2021/12/24 15:08:22;;;;;;;;;;;;;;;9.64;62.53;98792.59;4382459;32;34167;-87
2021/12/24 15:11:02;;;;;;;;;;;;;;;9.47;62.99;98785.59;4395684;32;33692;-87
2021/12/24 15:13:30;;;;;;;;;;;;;;;9.58;62.62;98776.50;4395725;32;32888;-88
2021/12/24 15:15:58;;;;;;;;;;;;;;;9.60;62.31;98775.34;4383984;32;33963;-86
2021/12/24 15:18:25;;;;;;;;;;;;;;;9.70;62.10;98772.53;4375138;32;33639;-86
2021/12/24 15:20:53;;;;;;;;;;;;;;;9.81;61.63;98783.69;4385704;32;35005;-87
2021/12/24 15:23:20;;;;;;;;;;;;;;;9.90;61.20;98779.22;4368975;32;33812;-86
2021/12/24 15:25:48;;;;;;;;;;;;;;;9.82;61.37;98774.72;4380604;32;33862;-87
2021/12/24 15:28:19;;;;;;;;;;;;;;;9.93;61.04;98776.22;4391400;32;35300;-85
2021/12/24 15:30:48;;;;;;;;;;;;;;;9.96;60.74;98779.41;4371392;32;34560;-85
2021/12/24 15:33:16;;;;;;;;;;;;;;;9.72;61.11;98775.88;4371718;32;32783;-87
2021/12/24 15:35:44;;;;;;;;;;;;;;;9.62;61.45;98776.00;4387094;32;33837;-87
2021/12/24 15:38:11;;;;;;;;;;;;;;;9.62;61.49;98775.19;4384501;32;36821;-86
2021/12/24 15:40:39;;;;;;;;;;;;;;;9.72;61.16;98782.00;4384768;32;34331;-88
2021/12/24 15:43:08;;;;;;;;;;;;;;;9.25;62.65;98788.84;4383751;32;33329;-87
2021/12/24 15:45:36;;;;;;;;;;;;;;;9.19;63.25;98783.34;4396702;32;33493;-87
2021/12/24 15:48:04;;;;;;;;;;;;;;;9.23;63.46;98774.06;4384105;32;36007;-87
2021/12/24 15:50:32;;;;;;;;;;;;;;;8.45;66.08;98782.28;4365656;32;33857;-86
2021/12/24 15:53:00;;;;;;;;;;;;;;;8.64;65.93;98795.31;4368034;32;32798;-88
2021/12/24 15:55:28;;;;;;;;;;;;;;;8.63;66.11;98791.03;4381483;32;33801;-87
2021/12/24 15:57:55;;;;;;;;;;;;;;;8.29;67.41;98792.75;4388453;32;35176;-88
2021/12/24 16:00:23;;;;;;;;;;;;;;;8.13;68.66;98799.72;4384276;32;34467;-88
2021/12/24 16:02:51;;;;;;;;;;;;;;;8.13;68.61;98794.41;4384130;32;32553;-86
2021/12/24 16:05:19;;;;;;;;;;;;;;;8.08;69.29;98794.03;4377226;32;32280;-88
2021/12/24 16:07:47;;;;;;;;;;;;;;;8.19;69.60;98799.97;4369549;32;34580;-87
2021/12/24 16:10:14;;;;;;;;;;;;;;;8.42;69.09;98789.72;4384147;32;34313;-88
2021/12/24 16:12:42;;;;;;;;;;;;;;;8.51;68.65;98801.03;4382148;32;31253;-87
2021/12/24 16:15:12;;;;;;;;;;;;;;;8.75;67.36;98805.66;4391166;32;33490;-87
2021/12/24 16:17:39;;;;;;;;;;;;;;;8.98;66.87;98802.31;4384142;32;34977;-86
2021/12/24 16:20:08;;;;;;;;;;;;;;;8.80;67.55;98792.78;4368569;32;32851;-87
2021/12/24 16:22:35;;;;;;;;;;;;;;;8.84;67.13;98792.31;4395883;32;31139;-85
2021/12/24 16:25:04;;;;;;;;;;;;;;;8.73;67.54;98805.81;4372396;32;32331;-87
2021/12/24 16:27:31;;;;;;;;;;;;;;;9.00;66.70;98799.50;4382327;32;34555;-88
2021/12/24 16:30:00;;;;;;;;;;;;;;;8.97;66.60;98797.19;4369752;32;33646;-88
2021/12/24 16:32:29;;;;;;;;;;;;;;;9.09;66.41;98801.22;4393418;32;34214;-86
2021/12/24 16:35:02;;;;;;;;;;;;;;;9.05;66.25;98806.00;4394910;32;34912;-89
2021/12/24 16:37:31;;;;;;;;;;;;;;;9.16;65.81;98797.75;4381470;32;35512;-90
2021/12/24 16:39:58;;;;;;;;;;;;;;;9.20;65.75;98808.88;4375494;32;33782;-86
2021/12/24 16:42:26;;;;;;;;;;;;;;;8.92;67.11;98816.22;4366730;32;33133;-86
2021/12/24 16:44:56;;;;;;;;;;;;;;;8.88;67.04;98817.50;4389394;32;33871;-87
2021/12/24 16:47:24;;;;;;;;;;;;;;;9.24;66.04;98812.87;4375208;32;35691;-88
2021/12/24 16:49:51;;;;;;;;;;;;;;;8.89;67.15;98821.81;4382414;32;33908;-85
2021/12/24 16:52:20;;;;;;;;;;;;;;;8.84;67.72;98828.59;4389798;32;33157;-82
2021/12/24 16:54:47;;;;;;;;;;;;;;;9.28;66.03;98827.50;4367927;32;33748;-85
2021/12/24 16:57:15;;;;;;;;;;;;;;;8.99;67.34;98830.50;4389681;32;34952;-80
2021/12/24 16:59:43;;;;;;;;;;;;;;;9.16;66.95;98834.09;4373421;32;35595;-86
2021/12/24 17:02:12;;;;;;;;;;;;;;;8.96;67.99;98825.53;4392315;32;32289;-83
2021/12/24 17:04:39;;;;;;;;;;;;;;;8.93;68.71;98817.03;4360420;32;34416;-85
2021/12/24 17:07:09;;;;;;;;;;;;;;;8.76;69.43;98807.31;4382371;32;34651;-86
2021/12/24 17:09:38;;;;;;;;;;;;;;;8.30;71.43;98807.66;4386270;32;33521;-85
2021/12/24 17:12:08;;;;;;;;;;;;;;;8.68;70.36;98807.28;4373110;32;33531;-82
2021/12/24 17:14:43;;;;;;;;;;;;;;;8.43;71.79;98801.97;4369123;32;33977;-87
2021/12/24 17:17:12;;;;;;;;;;;;;;;8.48;71.52;98787.25;4391575;32;35372;-84
2021/12/24 17:19:44;;;;;;;;;;;;;;;8.37;72.29;98787.53;4381063;32;35948;-85
2021/12/24 17:22:12;;;;;;;;;;;;;;;8.65;71.27;98805.78;4383242;32;32042;-86
2021/12/24 17:24:40;;;;;;;;;;;;;;;8.56;71.43;98809.38;4379710;32;34099;-88
2021/12/24 17:27:12;;;;;;;;;;;;;;;8.96;70.19;98804.31;4379095;32;35254;-85
2021/12/24 17:29:40;;;;;;;;;;;;;;;8.90;70.51;98804.91;4374509;32;36683;-87
2021/12/24 17:32:08;;;;;;;;;;;;;;;9.21;68.76;98802.59;4383084;32;31663;-86
2021/12/24 17:34:36;;;;;;;;;;;;;;;9.26;68.83;98805.59;4390119;32;34805;-87
2021/12/24 17:37:04;;;;;;;;;;;;;;;9.28;68.55;98804.44;4368555;32;35389;-84
2021/12/24 17:39:31;;;;;;;;;;;;;;;9.57;67.27;98796.09;4375269;32;33492;-84
2021/12/24 17:41:58;;;;;;;;;;;;;;;9.65;66.81;98775.69;4353635;32;32399;-84
2021/12/24 17:44:26;;;;;;;;;;;;;;;9.65;66.62;98780.19;4378144;32;34149;-85
2021/12/24 17:46:53;;;;;;;;;;;;;;;9.72;66.27;98778.53;4394935;32;35277;-88
2021/12/24 17:49:25;;;;;;;;;;;;;;;9.72;66.21;98776.69;4394090;32;34280;-84
2021/12/24 17:51:57;;;;;;;;;;;;;;;9.59;66.54;98783.47;4369251;32;33670;-87
2021/12/24 17:54:25;;;;;;;;;;;;;;;9.65;65.85;98782.81;4389488;32;33959;-87
2021/12/24 17:56:52;;;;;;;;;;;;;;;9.93;64.41;98781.53;4369037;32;35339;-85
2021/12/24 17:59:19;;;;;;;;;;;;;;;9.66;64.81;98795.91;4397744;32;34751;-88
2021/12/24 18:01:47;;;;;;;;;;;;;;;9.94;63.99;98791.16;4382667;32;32528;-89
2021/12/24 18:04:15;;;;;;;;;;;;;;;9.86;64.20;98789.34;4387284;32;33889;-86
2021/12/24 18:06:42;;;;;;;;;;;;;;;9.80;64.50;98784.69;4368742;32;33849;-87
2021/12/24 18:09:10;;;;;;;;;;;;;;;9.94;64.04;98785.84;4369318;32;34945;-86
2021/12/24 18:11:42;;;;;;;;;;;;;;;10.02;63.82;98783.22;4385678;32;33320;-85
2021/12/24 18:14:15;;;;;;;;;;;;;;;10.04;63.72;98790.06;4372591;32;33033;-81
2021/12/24 18:16:46;;;;;;;;;;;;;;;10.02;64.11;98783.22;4368479;32;34488;-85
2021/12/24 18:19:14;;;;;;;;;;;;;;;9.94;64.55;98794.66;4382508;32;35595;-86
2021/12/24 18:21:41;;;;;;;;;;;;;;;10.03;64.30;98796.34;4388951;32;34011;-85
2021/12/24 18:24:10;;;;;;;;;;;;;;;9.84;64.87;98791.31;4379769;32;32472;-84
2021/12/24 18:26:39;;;;;;;;;;;;;;;9.65;65.30;98786.28;4377334;32;34360;-88
2021/12/24 18:29:07;;;;;;;;;;;;;;;9.69;65.29;98789.47;4394152;32;35394;-84
2021/12/24 18:31:36;;;;;;;;;;;;;;;9.97;64.42;98790.84;4397115;32;34104;-86
2021/12/24 18:34:07;;;;;;;;;;;;;;;9.90;64.33;98779.22;4387567;32;33936;-84
2021/12/24 18:36:37;;;;;;;;;;;;;;;9.90;63.98;98787.19;4380943;32;34986;-85
2021/12/24 18:39:06;;;;;;;;;;;;;;;9.89;63.90;98782.84;4367233;32;37150;-84
2021/12/24 18:41:34;;;;;;;;;;;;;;;9.88;63.75;98797.97;4379718;32;31938;-84
2021/12/24 18:44:02;;;;;;;;;;;;;;;9.61;64.84;98808.03;4372640;32;33010;-85
2021/12/24 18:46:30;;;;;;;;;;;;;;;9.71;64.50;98798.94;4371488;32;36821;-85
2021/12/24 18:48:57;;;;;;;;;;;;;;;9.43;66.00;98799.34;4389985;32;34045;-86
2021/12/24 18:51:25;;;;;;;;;;;;;;;9.50;65.90;98811.00;4380411;32;33135;-85
2021/12/24 18:53:53;;;;;;;;;;;;;;;9.20;67.15;98814.19;4381508;32;32560;-87
2021/12/24 18:56:21;;;;;;;;;;;;;;;9.42;66.43;98819.75;4389203;32;35779;-88
2021/12/24 18:58:50;;;;;;;;;;;;;;;9.32;66.99;98819.06;4355792;32;35607;-86
2021/12/24 19:01:17;;;;;;;;;;;;;;;9.25;67.53;98814.56;4393381;32;32388;-82
2021/12/24 19:03:46;;;;;;;;;;;;;;;9.28;67.41;98807.09;4363637;32;34271;-87
2021/12/24 19:06:13;;;;;;;;;;;;;;;9.46;66.80;98805.16;4380152;32;34610;-86
2021/12/24 19:08:43;;;;;;;;;;;;;;;9.56;66.81;98811.16;4381618;32;34500;-84
2021/12/24 19:11:11;;;;;;;;;;;;;;;9.63;66.68;98798.91;4381486;32;32502;-85
2021/12/24 19:13:40;;;;;;;;;;;;;;;9.80;65.86;98783.84;4389693;32;33012;-85
2021/12/24 19:16:07;;;;;;;;;;;;;;;9.82;65.74;98785.34;4381707;32;34221;-86
2021/12/24 19:18:36;;;;;;;;;;;;;;;9.94;65.15;98775.22;4369636;32;33080;-83
2021/12/24 19:21:05;;;;;;;;;;;;;;;9.89;65.07;98781.03;4380882;32;32699;-84
2021/12/24 19:23:34;;;;;;;;;;;;;;;9.54;65.82;98778.66;4387524;32;34196;-87
2021/12/24 19:26:04;;;;;;;;;;;;;;;9.41;66.48;98780.94;4379412;32;34933;-87
2021/12/24 19:28:32;;;;;;;;;;;;;;;9.76;64.99;98782.50;4380032;32;34865;-85
2021/12/24 19:31:02;;;;;;;;;;;;;;;9.62;65.50;98791.13;4381458;32;33292;-87
2021/12/24 19:33:30;;;;;;;;;;;;;;;9.41;65.57;98778.28;4381970;32;35235;-83
2021/12/24 19:36:00;;;;;;;;;;;;;;;9.70;64.80;98764.56;4375878;32;34334;-87
2021/12/24 19:38:31;;;;;;;;;;;;;;;9.49;64.33;98765.03;4386938;32;33704;-85
2021/12/24 19:41:17;;;;;;;;;;;;;;;9.66;63.66;98773.87;4396558;32;32658;-86
2021/12/24 19:43:47;;;;;;;;;;;;;;;9.14;64.77;98775.88;4374025;32;34602;-86
2021/12/24 19:46:17;;;;;;;;;;;;;;;9.49;63.49;98780.13;4390121;32;35229;-86
2021/12/24 19:48:45;;;;;;;;;;;;;;;9.57;62.95;98796.09;4371135;32;34054;-86
2021/12/24 19:51:13;;;;;;;;;;;;;;;9.51;63.14;98786.94;4392019;32;33131;-85
2021/12/24 19:53:40;;;;;;;;;;;;;;;9.41;63.27;98786.25;4367733;32;33056;-86
2021/12/24 19:56:08;;;;;;;;;;;;;;;9.41;63.54;98788.06;4369577;32;34494;-88
2021/12/24 19:58:35;;;;;;;;;;;;;;;9.57;63.13;98786.31;4396738;32;34564;-85
2021/12/24 20:01:07;;;;;;;;;;;;;;;9.65;62.94;98774.84;4369990;32;31989;-88
2021/12/24 20:03:37;;;;;;;;;;;;;;;9.52;63.19;98788.59;4374409;32;33805;-86
2021/12/24 20:06:07;;;;;;;;;;;;;;;8.79;66.16;98791.13;4382275;32;34447;-86
2021/12/24 20:08:34;;;;;;;;;;;;;;;9.23;64.63;98792.62;4370056;32;34522;-84
2021/12/24 20:11:03;;;;;;;;;;;;;;;9.30;64.21;98791.88;4379547;32;31969;-86
2021/12/24 20:13:36;;;;;;;;;;;;;;;8.90;65.84;98786.34;4376818;32;34031;-86
2021/12/24 20:16:04;;;;;;;;;;;;;;;9.18;64.78;98773.72;4384601;32;36084;-83
2021/12/24 20:18:32;;;;;;;;;;;;;;;9.12;65.15;98766.41;4382628;32;34686;-85
2021/12/24 20:20:59;;;;;;;;;;;;;;;9.35;64.57;98770.16;4381442;32;31220;-87
2021/12/24 20:23:28;;;;;;;;;;;;;;;9.44;64.01;98772.66;4370607;32;34203;-87
2021/12/24 20:25:57;;;;;;;;;;;;;;;8.98;65.60;98778.44;4387042;32;33610;-84
2021/12/24 20:28:25;;;;;;;;;;;;;;;8.91;65.65;98787.19;4393162;32;35293;-85
2021/12/24 20:30:53;;;;;;;;;;;;;;;9.12;65.16;98783.16;4395291;32;32879;-87
2021/12/24 20:33:22;;;;;;;;;;;;;;;9.17;64.92;98772.88;4386068;32;34050;-86
2021/12/24 20:35:49;;;;;;;;;;;;;;;9.04;65.28;98774.31;4395743;32;34849;-89
2021/12/24 20:38:20;;;;;;;;;;;;;;;9.22;64.85;98781.22;4368228;32;34257;-89
2021/12/24 20:40:52;;;;;;;;;;;;;;;9.09;65.07;98780.81;4383009;32;33565;-88
2021/12/24 20:43:32;;;;;;;;;;;;;;;8.94;65.64;98786.88;4370872;32;35152;-85
2021/12/24 20:46:04;;;;;;;;;;;;;;;9.10;65.30;98782.47;4395080;32;35587;-86